Air Sicilia Virtual Airways - Route

Air Sicilia Virtual Airways - SIC056A

( IT ) LIMZ - 00:00
Cuneo International Airport
CUNEO ( CUF )
plane_to ( IT ) LIRU - 00:00
Urbe Airport
ROMA ( )

AIRPORT NEAR NAVIGATION AIDS

Type Name Frequency
NDB Levaldigi 371 KHZ

METAR / TAF
LIMZ 181450Z VRB03KT CAVOK 29/14 Q1018
LIMZ 181100Z 1812/1912 VRB05KT 9999 SCT025

RUNWAY INFORMATION

Runway Runway length Runway width Runway elevation Runway displaced threshold Runway heading
03 6903 148 1267 0 32
21 6903 148 1217 0 212

AIRPORT FREQUENCIES

Type Name Frequency
AFIS CUNEO INFO 119.55 MHZ

AIRPORT NEAR NAVIGATION AIDS

Type Name Frequency
NDB Urbe 285 KHZ

METAR / TAF
LIRU 181450Z VRB03KT 030V150 9999 SCT040 22/21 Q1016

RUNWAY INFORMATION

Runway Runway length Runway width Runway elevation Runway displaced threshold Runway heading
16 3543 98 55 361 160
34 3543 98 55 820 340

AIRPORT FREQUENCIES

Type Name Frequency
GND GND 122.7 MHZ
TWR TWR 123.8 MHZ

Flightplan

VFR

Air Sicilia Virtual Airways Fleets

AVAILABLE AIRCRAFTS for route at this time in Cuneo International Airport

At this time no aircraft Air Sicilia Virtual Airways is available at Cuneo International Airport
Only Charter flights.

264.304 NM

Distance in nautical miles.

€ 258,00

Ticket price for this flight.

0 h.

Estimated flight time.



07-08-2018
Aerosoft Professional Flight Planner PFPX

PFPX - Professional Flight Planner X - è un nuovo ed innovativo strumento di pianificazione del volo sviluppato da piloti e dispatcher del mondo reale. È un'aggiunta preziosa e realistica alla tua esperienza di simulaz ....


19-07-2018
Aerosoft Oslo X

L'Aeroporto di Oslo-Gardermoen (IATA: OSL, ICAO: ENGM) è il principale aeroporto norvegese e il 19° in Europa, è situato vicino alla cittadina di Ullensaker nella contea di Akershus e serve la capitale Oslo. Ha sostit ....


21-06-2018
Aerosoft Malpensa Professional P3Dv4

L'Aeroporto di Milano-Malpensa (IATA: MXP, ICAO: LIMC) è un aeroporto italiano situato nella provincia di Varese in Lombardia, ma considerato come il principale aeroporto di Milano.

È il secondo aeroporto ital ....


06-06-2018
1° Raduno Air Sicilia Virtual - parla il C.E.O.

Grande successo per il 1° Raduno di Compagnia dell'Air Sicilia Virtual, che ha visto i membri della Crew presenti il 4 giugno 2018 a Thiene ( VI ) , cimentarsi dal vivo con le reali ....


24-05-2018
Aerosoft Airport Rome XP

Tra le nostre recensioni non poteva mancare certo la nuova uscita Aerosoft per X-Plane, stiamo parlando di Airport Rome XP, finalmente un Add-on pay completo dell'Aeroporto di Roma Fiumicino per gli utilizzatori del simu ....